sensor_id;sensor_type;location;lat;lon;timestamp;temperature;humidity
22337;DHT22;14992;50.844;4.418;2023-02-11T00:02:28;8.00;99.90
22337;DHT22;14992;50.844;4.418;2023-02-11T00:05:07;8.00;99.90
22337;DHT22;14992;50.844;4.418;2023-02-11T00:08:03;8.00;99.90
22337;DHT22;14992;50.844;4.418;2023-02-11T00:11:03;8.00;99.90
22337;DHT22;14992;50.844;4.418;2023-02-11T00:13:39;8.00;99.90
22337;DHT22;14992;50.844;4.418;2023-02-11T00:16:35;8.00;99.90
22337;DHT22;14992;50.844;4.418;2023-02-11T00:19:10;8.00;99.90
22337;DHT22;14992;50.844;4.418;2023-02-11T00:22:07;8.00;99.90
22337;DHT22;14992;50.844;4.418;2023-02-11T00:24:42;8.00;99.90
22337;DHT22;14992;50.844;4.418;2023-02-11T00:27:38;7.90;99.90
22337;DHT22;14992;50.844;4.418;2023-02-11T00:30:13;7.80;99.90
22337;DHT22;14992;50.844;4.418;2023-02-11T00:33:09;7.80;99.90
22337;DHT22;14992;50.844;4.418;2023-02-11T00:36:04;7.80;99.90
22337;DHT22;14992;50.844;4.418;2023-02-11T00:38:43;7.80;99.90
22337;DHT22;14992;50.844;4.418;2023-02-11T00:41:40;7.80;99.90
22337;DHT22;14992;50.844;4.418;2023-02-11T00:44:15;7.80;99.90
22337;DHT22;14992;50.844;4.418;2023-02-11T00:47:14;7.80;99.90
22337;DHT22;14992;50.844;4.418;2023-02-11T00:49:49;7.70;99.90
22337;DHT22;14992;50.844;4.418;2023-02-11T00:52:47;7.70;99.90
22337;DHT22;14992;50.844;4.418;2023-02-11T00:55:24;7.70;99.90
22337;DHT22;14992;50.844;4.418;2023-02-11T00:58:19;7.80;99.90
22337;DHT22;14992;50.844;4.418;2023-02-11T01:01:02;7.60;99.90
22337;DHT22;14992;50.844;4.418;2023-02-11T01:03:52;7.70;99.90
22337;DHT22;14992;50.844;4.418;2023-02-11T01:06:34;7.60;99.90
22337;DHT22;14992;50.844;4.418;2023-02-11T01:09:23;7.60;99.90
22337;DHT22;14992;50.844;4.418;2023-02-11T01:12:07;7.50;99.90
22337;DHT22;14992;50.844;4.418;2023-02-11T01:14:56;7.50;99.90
22337;DHT22;14992;50.844;4.418;2023-02-11T01:17:37;7.50;99.90
22337;DHT22;14992;50.844;4.418;2023-02-11T01:20:27;7.50;99.90
22337;DHT22;14992;50.844;4.418;2023-02-11T01:23:09;7.50;99.90
22337;DHT22;14992;50.844;4.418;2023-02-11T01:25:57;7.50;99.90
22337;DHT22;14992;50.844;4.418;2023-02-11T01:28:42;7.60;99.90
22337;DHT22;14992;50.844;4.418;2023-02-11T01:31:37;7.70;99.90
22337;DHT22;14992;50.844;4.418;2023-02-11T01:34:32;7.60;99.90
22337;DHT22;14992;50.844;4.418;2023-02-11T01:37:13;7.70;99.90
22337;DHT22;14992;50.844;4.418;2023-02-11T01:40:05;7.70;99.90
22337;DHT22;14992;50.844;4.418;2023-02-11T01:42:47;7.70;99.90
22337;DHT22;14992;50.844;4.418;2023-02-11T01:45:57;7.80;99.90
22337;DHT22;14992;50.844;4.418;2023-02-11T01:48:42;7.80;99.90
22337;DHT22;14992;50.844;4.418;2023-02-11T01:51:27;7.80;99.90
22337;DHT22;14992;50.844;4.418;2023-02-11T01:54:20;7.80;99.90
22337;DHT22;14992;50.844;4.418;2023-02-11T01:57:24;7.70;99.90
22337;DHT22;14992;50.844;4.418;2023-02-11T02:00:17;7.70;99.90
22337;DHT22;14992;50.844;4.418;2023-02-11T02:03:05;7.60;99.90
22337;DHT22;14992;50.844;4.418;2023-02-11T02:06:00;7.60;99.90
22337;DHT22;14992;50.844;4.418;2023-02-11T02:08:49;7.50;99.90
22337;DHT22;14992;50.844;4.418;2023-02-11T02:11:40;7.50;99.90
22337;DHT22;14992;50.844;4.418;2023-02-11T02:14:21;7.50;99.90
22337;DHT22;14992;50.844;4.418;2023-02-11T02:17:27;7.60;99.90
22337;DHT22;14992;50.844;4.418;2023-02-11T02:23:50;7.80;99.90
22337;DHT22;14992;50.844;4.418;2023-02-11T02:30:32;7.90;99.90
22337;DHT22;14992;50.844;4.418;2023-02-11T02:33:29;7.90;99.90
22337;DHT22;14992;50.844;4.418;2023-02-11T02:36:33;8.00;99.90
22337;DHT22;14992;50.844;4.418;2023-02-11T02:39:12;8.00;99.90
22337;DHT22;14992;50.844;4.418;2023-02-11T02:42:08;7.90;99.90
22337;DHT22;14992;50.844;4.418;2023-02-11T02:44:47;7.90;99.90
22337;DHT22;14992;50.844;4.418;2023-02-11T02:47:43;7.90;99.90
22337;DHT22;14992;50.844;4.418;2023-02-11T02:50:25;8.00;99.90
22337;DHT22;14992;50.844;4.418;2023-02-11T02:53:31;7.90;99.90
22337;DHT22;14992;50.844;4.418;2023-02-11T02:56:19;8.00;99.90
22337;DHT22;14992;50.844;4.418;2023-02-11T02:59:32;8.00;99.90
22337;DHT22;14992;50.844;4.418;2023-02-11T03:02:23;8.10;99.90
22337;DHT22;14992;50.844;4.418;2023-02-11T03:05:17;8.00;99.90
22337;DHT22;14992;50.844;4.418;2023-02-11T03:08:05;8.00;99.90
22337;DHT22;14992;50.844;4.418;2023-02-11T03:10:56;8.00;99.90
22337;DHT22;14992;50.844;4.418;2023-02-11T03:13:41;8.00;99.90
22337;DHT22;14992;50.844;4.418;2023-02-11T03:16:30;8.00;99.90
22337;DHT22;14992;50.844;4.418;2023-02-11T03:19:20;8.00;99.90
22337;DHT22;14992;50.844;4.418;2023-02-11T03:22:12;8.10;99.90
22337;DHT22;14992;50.844;4.418;2023-02-11T03:24:59;8.10;99.90
22337;DHT22;14992;50.844;4.418;2023-02-11T03:27:53;8.20;99.90
22337;DHT22;14992;50.844;4.418;2023-02-11T03:30:42;8.20;99.90
22337;DHT22;14992;50.844;4.418;2023-02-11T03:33:36;8.20;99.90
22337;DHT22;14992;50.844;4.418;2023-02-11T03:36:24;8.20;99.90
22337;DHT22;14992;50.844;4.418;2023-02-11T03:39:15;8.30;99.90
22337;DHT22;14992;50.844;4.418;2023-02-11T03:42:02;8.40;99.90
22337;DHT22;14992;50.844;4.418;2023-02-11T03:45:07;8.40;99.90
22337;DHT22;14992;50.844;4.418;2023-02-11T03:47:45;8.30;99.90
22337;DHT22;14992;50.844;4.418;2023-02-11T03:50:43;8.40;99.90
22337;DHT22;14992;50.844;4.418;2023-02-11T03:53:21;8.50;99.90
22337;DHT22;14992;50.844;4.418;2023-02-11T03:56:19;8.50;99.90
22337;DHT22;14992;50.844;4.418;2023-02-11T03:58:57;8.50;99.90
22337;DHT22;14992;50.844;4.418;2023-02-11T04:01:52;8.50;99.90
22337;DHT22;14992;50.844;4.418;2023-02-11T04:04:30;8.40;99.90
22337;DHT22;14992;50.844;4.418;2023-02-11T04:07:26;8.30;99.90
22337;DHT22;14992;50.844;4.418;2023-02-11T04:10:02;8.40;99.90
22337;DHT22;14992;50.844;4.418;2023-02-11T04:12:58;8.40;99.90
22337;DHT22;14992;50.844;4.418;2023-02-11T04:15:42;8.40;99.90
22337;DHT22;14992;50.844;4.418;2023-02-11T04:18:30;8.40;99.90
22337;DHT22;14992;50.844;4.418;2023-02-11T04:21:11;8.40;99.90
22337;DHT22;14992;50.844;4.418;2023-02-11T04:24:00;8.50;99.90
22337;DHT22;14992;50.844;4.418;2023-02-11T04:26:41;8.50;99.90
22337;DHT22;14992;50.844;4.418;2023-02-11T04:29:30;8.60;99.90
22337;DHT22;14992;50.844;4.418;2023-02-11T04:32:13;8.50;99.90
22337;DHT22;14992;50.844;4.418;2023-02-11T04:35:02;8.50;99.90
22337;DHT22;14992;50.844;4.418;2023-02-11T04:37:44;8.60;99.90
22337;DHT22;14992;50.844;4.418;2023-02-11T04:40:40;8.60;99.90
22337;DHT22;14992;50.844;4.418;2023-02-11T04:43:15;8.50;99.90
22337;DHT22;14992;50.844;4.418;2023-02-11T04:46:12;8.60;99.90
22337;DHT22;14992;50.844;4.418;2023-02-11T04:48:49;8.60;99.90
22337;DHT22;14992;50.844;4.418;2023-02-11T04:51:44;8.50;99.90
22337;DHT22;14992;50.844;4.418;2023-02-11T04:54:22;8.50;99.90
22337;DHT22;14992;50.844;4.418;2023-02-11T04:57:18;8.50;99.90
22337;DHT22;14992;50.844;4.418;2023-02-11T04:59:54;8.60;99.90
22337;DHT22;14992;50.844;4.418;2023-02-11T05:02:49;8.60;99.90
22337;DHT22;14992;50.844;4.418;2023-02-11T05:05:26;8.60;99.90
22337;DHT22;14992;50.844;4.418;2023-02-11T05:08:21;8.60;99.90
22337;DHT22;14992;50.844;4.418;2023-02-11T05:11:04;8.60;99.90
22337;DHT22;14992;50.844;4.418;2023-02-11T05:13:52;8.60;99.90
22337;DHT22;14992;50.844;4.418;2023-02-11T05:16:34;8.40;99.90
22337;DHT22;14992;50.844;4.418;2023-02-11T05:19:22;8.40;99.90
22337;DHT22;14992;50.844;4.418;2023-02-11T05:22:05;8.30;99.90
22337;DHT22;14992;50.844;4.418;2023-02-11T05:24:53;8.40;99.90
22337;DHT22;14992;50.844;4.418;2023-02-11T05:27:35;8.40;99.90
22337;DHT22;14992;50.844;4.418;2023-02-11T05:30:24;8.40;99.90
22337;DHT22;14992;50.844;4.418;2023-02-11T05:33:13;8.50;99.90
22337;DHT22;14992;50.844;4.418;2023-02-11T05:36:10;8.50;99.90
22337;DHT22;14992;50.844;4.418;2023-02-11T05:38:48;8.50;99.90
22337;DHT22;14992;50.844;4.418;2023-02-11T05:41:43;8.50;99.90
22337;DHT22;14992;50.844;4.418;2023-02-11T05:44:19;8.50;99.90
22337;DHT22;14992;50.844;4.418;2023-02-11T05:47:14;8.40;99.90
22337;DHT22;14992;50.844;4.418;2023-02-11T05:49:50;8.40;99.90
22337;DHT22;14992;50.844;4.418;2023-02-11T05:52:45;8.40;99.90
22337;DHT22;14992;50.844;4.418;2023-02-11T05:55:22;8.40;99.90
22337;DHT22;14992;50.844;4.418;2023-02-11T05:58:17;8.40;99.90
22337;DHT22;14992;50.844;4.418;2023-02-11T06:00:58;8.50;99.90
22337;DHT22;14992;50.844;4.418;2023-02-11T06:03:47;8.60;99.90
22337;DHT22;14992;50.844;4.418;2023-02-11T06:06:31;8.50;99.90
22337;DHT22;14992;50.844;4.418;2023-02-11T06:09:20;8.60;99.90
22337;DHT22;14992;50.844;4.418;2023-02-11T06:12:03;8.70;99.90
22337;DHT22;14992;50.844;4.418;2023-02-11T06:14:52;8.60;99.90
22337;DHT22;14992;50.844;4.418;2023-02-11T06:17:43;8.70;99.90
22337;DHT22;14992;50.844;4.418;2023-02-11T06:20:32;8.80;99.90
22337;DHT22;14992;50.844;4.418;2023-02-11T06:23:15;8.80;99.90
22337;DHT22;14992;50.844;4.418;2023-02-11T06:26:04;8.80;99.90
22337;DHT22;14992;50.844;4.418;2023-02-11T06:28:49;8.80;99.90
22337;DHT22;14992;50.844;4.418;2023-02-11T06:31:44;8.80;99.90
22337;DHT22;14992;50.844;4.418;2023-02-11T06:34:40;8.90;99.90
22337;DHT22;14992;50.844;4.418;2023-02-11T06:37:22;8.90;99.90
22337;DHT22;14992;50.844;4.418;2023-02-11T06:40:11;8.90;99.90
22337;DHT22;14992;50.844;4.418;2023-02-11T06:42:52;8.80;99.90
22337;DHT22;14992;50.844;4.418;2023-02-11T06:45:43;8.80;99.90
22337;DHT22;14992;50.844;4.418;2023-02-11T06:48:24;8.80;99.90
22337;DHT22;14992;50.844;4.418;2023-02-11T06:51:14;8.70;99.90
22337;DHT22;14992;50.844;4.418;2023-02-11T06:53:55;8.70;99.90
22337;DHT22;14992;50.844;4.418;2023-02-11T06:56:51;8.70;99.90
22337;DHT22;14992;50.844;4.418;2023-02-11T06:59:26;8.80;99.90
22337;DHT22;14992;50.844;4.418;2023-02-11T07:02:31;8.90;99.90
22337;DHT22;14992;50.844;4.418;2023-02-11T07:05:27;8.90;99.90
22337;DHT22;14992;50.844;4.418;2023-02-11T07:08:09;8.90;99.90
22337;DHT22;14992;50.844;4.418;2023-02-11T07:10:57;8.90;99.90
22337;DHT22;14992;50.844;4.418;2023-02-11T07:13:38;8.90;99.90
22337;DHT22;14992;50.844;4.418;2023-02-11T07:16:28;8.90;99.90
22337;DHT22;14992;50.844;4.418;2023-02-11T07:19:12;9.00;99.90
22337;DHT22;14992;50.844;4.418;2023-02-11T07:22:07;9.00;99.90
22337;DHT22;14992;50.844;4.418;2023-02-11T07:24:43;9.10;99.90
22337;DHT22;14992;50.844;4.418;2023-02-11T07:27:38;9.00;99.90
22337;DHT22;14992;50.844;4.418;2023-02-11T07:30:14;9.10;99.90
22337;DHT22;14992;50.844;4.418;2023-02-11T07:33:09;9.10;99.90
22337;DHT22;14992;50.844;4.418;2023-02-11T07:36:07;9.00;99.90
22337;DHT22;14992;50.844;4.418;2023-02-11T07:38:50;9.00;99.90
22337;DHT22;14992;50.844;4.418;2023-02-11T07:41:38;9.10;99.90
22337;DHT22;14992;50.844;4.418;2023-02-11T07:44:21;9.10;99.90
22337;DHT22;14992;50.844;4.418;2023-02-11T07:47:19;9.00;99.90
22337;DHT22;14992;50.844;4.418;2023-02-11T07:49:54;9.00;99.90
22337;DHT22;14992;50.844;4.418;2023-02-11T07:52:51;8.90;99.90
22337;DHT22;14992;50.844;4.418;2023-02-11T07:55:26;9.00;99.90
22337;DHT22;14992;50.844;4.418;2023-02-11T07:58:22;9.10;99.90
22337;DHT22;14992;50.844;4.418;2023-02-11T08:01:00;9.10;99.90
22337;DHT22;14992;50.844;4.418;2023-02-11T08:03:58;9.10;99.90
22337;DHT22;14992;50.844;4.418;2023-02-11T08:06:34;9.10;99.90
22337;DHT22;14992;50.844;4.418;2023-02-11T08:09:38;9.10;99.90
22337;DHT22;14992;50.844;4.418;2023-02-11T08:12:20;9.20;99.90
22337;DHT22;14992;50.844;4.418;2023-02-11T08:15:09;9.20;99.90
22337;DHT22;14992;50.844;4.418;2023-02-11T08:17:50;9.10;99.90
22337;DHT22;14992;50.844;4.418;2023-02-11T08:20:40;9.10;99.90
22337;DHT22;14992;50.844;4.418;2023-02-11T08:23:22;9.20;99.90
22337;DHT22;14992;50.844;4.418;2023-02-11T08:26:17;9.10;99.90
22337;DHT22;14992;50.844;4.418;2023-02-11T08:29:01;9.30;99.90
22337;DHT22;14992;50.844;4.418;2023-02-11T08:31:50;9.30;99.90
22337;DHT22;14992;50.844;4.418;2023-02-11T08:34:32;9.40;99.90
22337;DHT22;14992;50.844;4.418;2023-02-11T08:37:20;9.40;99.90
22337;DHT22;14992;50.844;4.418;2023-02-11T08:40:07;9.30;99.90
22337;DHT22;14992;50.844;4.418;2023-02-11T08:43:03;9.20;99.90
22337;DHT22;14992;50.844;4.418;2023-02-11T08:45:41;9.10;99.90
22337;DHT22;14992;50.844;4.418;2023-02-11T08:48:36;9.10;99.90
22337;DHT22;14992;50.844;4.418;2023-02-11T08:51:14;9.20;99.90
22337;DHT22;14992;50.844;4.418;2023-02-11T08:54:10;9.30;99.90
22337;DHT22;14992;50.844;4.418;2023-02-11T08:56:49;9.30;99.90
22337;DHT22;14992;50.844;4.418;2023-02-11T08:59:46;9.30;99.90
22337;DHT22;14992;50.844;4.418;2023-02-11T09:02:21;9.30;99.90
22337;DHT22;14992;50.844;4.418;2023-02-11T09:05:17;9.30;99.90
22337;DHT22;14992;50.844;4.418;2023-02-11T09:07:59;9.40;99.90
22337;DHT22;14992;50.844;4.418;2023-02-11T09:10:47;9.30;99.90
22337;DHT22;14992;50.844;4.418;2023-02-11T09:13:30;9.50;99.90
22337;DHT22;14992;50.844;4.418;2023-02-11T09:16:21;9.50;99.90
22337;DHT22;14992;50.844;4.418;2023-02-11T09:19:05;9.50;99.90
22337;DHT22;14992;50.844;4.418;2023-02-11T09:21:53;9.40;99.90
22337;DHT22;14992;50.844;4.418;2023-02-11T09:24:35;9.50;99.90
22337;DHT22;14992;50.844;4.418;2023-02-11T09:27:23;9.60;99.90
22337;DHT22;14992;50.844;4.418;2023-02-11T09:30:06;9.70;99.90
22337;DHT22;14992;50.844;4.418;2023-02-11T09:33:03;9.60;99.90
22337;DHT22;14992;50.844;4.418;2023-02-11T09:35:45;9.60;99.90
22337;DHT22;14992;50.844;4.418;2023-02-11T09:38:34;9.70;99.90
22337;DHT22;14992;50.844;4.418;2023-02-11T09:41:34;9.80;99.90
22337;DHT22;14992;50.844;4.418;2023-02-11T09:44:33;9.80;99.90
22337;DHT22;14992;50.844;4.418;2023-02-11T09:47:20;9.80;99.90
22337;DHT22;14992;50.844;4.418;2023-02-11T09:50:22;9.90;99.90
22337;DHT22;14992;50.844;4.418;2023-02-11T09:53:01;10.00;99.90
22337;DHT22;14992;50.844;4.418;2023-02-11T09:55:59;10.10;99.90
22337;DHT22;14992;50.844;4.418;2023-02-11T09:58:43;10.00;99.90
22337;DHT22;14992;50.844;4.418;2023-02-11T10:01:37;10.00;99.90
22337;DHT22;14992;50.844;4.418;2023-02-11T10:04:34;10.00;99.90
22337;DHT22;14992;50.844;4.418;2023-02-11T10:07:33;10.10;99.90
22337;DHT22;14992;50.844;4.418;2023-02-11T10:10:34;10.10;99.90
22337;DHT22;14992;50.844;4.418;2023-02-11T10:13:43;10.10;99.90
22337;DHT22;14992;50.844;4.418;2023-02-11T10:16:39;10.10;99.90
22337;DHT22;14992;50.844;4.418;2023-02-11T10:19:39;10.10;99.90
22337;DHT22;14992;50.844;4.418;2023-02-11T10:22:29;10.20;99.90
22337;DHT22;14992;50.844;4.418;2023-02-11T10:25:23;10.20;99.90
22337;DHT22;14992;50.844;4.418;2023-02-11T10:28:11;10.20;99.90
22337;DHT22;14992;50.844;4.418;2023-02-11T10:31:09;10.30;99.90
22337;DHT22;14992;50.844;4.418;2023-02-11T10:33:51;10.20;99.90
22337;DHT22;14992;50.844;4.418;2023-02-11T10:36:48;10.20;99.90
22337;DHT22;14992;50.844;4.418;2023-02-11T10:39:27;10.20;99.90
22337;DHT22;14992;50.844;4.418;2023-02-11T10:42:22;10.20;99.90
22337;DHT22;14992;50.844;4.418;2023-02-11T10:45:02;10.20;99.90
22337;DHT22;14992;50.844;4.418;2023-02-11T10:48:04;10.20;99.90
22337;DHT22;14992;50.844;4.418;2023-02-11T10:50:40;10.30;99.90
22337;DHT22;14992;50.844;4.418;2023-02-11T10:53:36;10.30;99.90
22337;DHT22;14992;50.844;4.418;2023-02-11T10:56:20;10.20;99.90
22337;DHT22;14992;50.844;4.418;2023-02-11T10:59:22;10.30;99.90
22337;DHT22;14992;50.844;4.418;2023-02-11T11:02:20;10.40;99.90
22337;DHT22;14992;50.844;4.418;2023-02-11T11:05:17;10.40;99.90
22337;DHT22;14992;50.844;4.418;2023-02-11T11:08:04;10.50;99.90
22337;DHT22;14992;50.844;4.418;2023-02-11T11:11:04;10.50;99.90
22337;DHT22;14992;50.844;4.418;2023-02-11T11:13:55;10.40;99.90
22337;DHT22;14992;50.844;4.418;2023-02-11T11:16:51;10.40;99.90
22337;DHT22;14992;50.844;4.418;2023-02-11T11:19:34;10.40;99.90
22337;DHT22;14992;50.844;4.418;2023-02-11T11:22:22;10.30;99.90
22337;DHT22;14992;50.844;4.418;2023-02-11T11:25:23;10.30;99.90
22337;DHT22;14992;50.844;4.418;2023-02-11T11:28:20;10.30;99.90
22337;DHT22;14992;50.844;4.418;2023-02-11T11:31:11;10.40;99.90
22337;DHT22;14992;50.844;4.418;2023-02-11T11:34:20;10.40;99.90
22337;DHT22;14992;50.844;4.418;2023-02-11T11:37:10;10.50;99.90
22337;DHT22;14992;50.844;4.418;2023-02-11T11:40:02;10.60;99.90
22337;DHT22;14992;50.844;4.418;2023-02-11T11:42:41;10.60;99.90
22337;DHT22;14992;50.844;4.418;2023-02-11T11:45:36;10.60;99.90
22337;DHT22;14992;50.844;4.418;2023-02-11T11:48:18;10.60;99.90
22337;DHT22;14992;50.844;4.418;2023-02-11T11:51:15;10.60;99.90
22337;DHT22;14992;50.844;4.418;2023-02-11T11:56:53;10.50;99.90
22337;DHT22;14992;50.844;4.418;2023-02-11T11:59:50;10.60;99.90
22337;DHT22;14992;50.844;4.418;2023-02-11T12:02:54;10.50;99.90
22337;DHT22;14992;50.844;4.418;2023-02-11T12:06:02;10.60;99.90
22337;DHT22;14992;50.844;4.418;2023-02-11T12:08:48;10.60;99.90
22337;DHT22;14992;50.844;4.418;2023-02-11T12:12:00;10.70;99.90
22337;DHT22;14992;50.844;4.418;2023-02-11T12:14:45;10.70;99.90
22337;DHT22;14992;50.844;4.418;2023-02-11T12:18:05;10.80;99.90
22337;DHT22;14992;50.844;4.418;2023-02-11T12:21:00;10.80;99.90
22337;DHT22;14992;50.844;4.418;2023-02-11T12:24:08;10.80;99.90
22337;DHT22;14992;50.844;4.418;2023-02-11T12:26:56;10.70;99.90
22337;DHT22;14992;50.844;4.418;2023-02-11T12:30:02;10.60;99.90
22337;DHT22;14992;50.844;4.418;2023-02-11T12:32:45;10.70;99.90
22337;DHT22;14992;50.844;4.418;2023-02-11T12:35:49;10.90;99.90
22337;DHT22;14992;50.844;4.418;2023-02-11T12:38:44;10.90;99.90
22337;DHT22;14992;50.844;4.418;2023-02-11T12:41:58;10.90;99.90
22337;DHT22;14992;50.844;4.418;2023-02-11T12:45:16;10.90;99.90
22337;DHT22;14992;50.844;4.418;2023-02-11T12:48:16;11.00;99.90
22337;DHT22;14992;50.844;4.418;2023-02-11T12:51:08;11.00;99.90
22337;DHT22;14992;50.844;4.418;2023-02-11T12:54:17;11.00;99.90
22337;DHT22;14992;50.844;4.418;2023-02-11T12:57:14;11.00;99.90
22337;DHT22;14992;50.844;4.418;2023-02-11T13:00:03;11.00;99.90
22337;DHT22;14992;50.844;4.418;2023-02-11T13:02:58;11.20;99.90
22337;DHT22;14992;50.844;4.418;2023-02-11T13:05:38;11.20;99.90
22337;DHT22;14992;50.844;4.418;2023-02-11T13:08:37;11.40;99.90
22337;DHT22;14992;50.844;4.418;2023-02-11T13:11:20;11.40;99.90
22337;DHT22;14992;50.844;4.418;2023-02-11T13:14:23;11.40;99.90
22337;DHT22;14992;50.844;4.418;2023-02-11T13:17:32;11.40;99.90
22337;DHT22;14992;50.844;4.418;2023-02-11T13:20:16;11.40;99.90
22337;DHT22;14992;50.844;4.418;2023-02-11T13:23:21;11.30;99.90
22337;DHT22;14992;50.844;4.418;2023-02-11T13:26:01;11.10;99.90
22337;DHT22;14992;50.844;4.418;2023-02-11T13:29:14;11.20;99.90
22337;DHT22;14992;50.844;4.418;2023-02-11T13:31:53;11.20;99.90
22337;DHT22;14992;50.844;4.418;2023-02-11T13:34:54;11.30;99.90
22337;DHT22;14992;50.844;4.418;2023-02-11T13:37:33;11.10;99.90
22337;DHT22;14992;50.844;4.418;2023-02-11T13:40:31;11.10;99.90
22337;DHT22;14992;50.844;4.418;2023-02-11T13:43:20;11.10;99.90
22337;DHT22;14992;50.844;4.418;2023-02-11T13:46:18;11.00;99.90
22337;DHT22;14992;50.844;4.418;2023-02-11T13:49:01;11.10;99.90
22337;DHT22;14992;50.844;4.418;2023-02-11T13:51:50;11.20;99.90
22337;DHT22;14992;50.844;4.418;2023-02-11T13:54:36;11.10;99.90
22337;DHT22;14992;50.844;4.418;2023-02-11T13:57:35;11.10;99.90
22337;DHT22;14992;50.844;4.418;2023-02-11T14:00:49;11.10;99.90
22337;DHT22;14992;50.844;4.418;2023-02-11T14:04:12;11.10;99.90
22337;DHT22;14992;50.844;4.418;2023-02-11T14:07:28;11.20;99.90
22337;DHT22;14992;50.844;4.418;2023-02-11T14:10:49;11.30;99.90
22337;DHT22;14992;50.844;4.418;2023-02-11T14:13:26;11.30;99.90
22337;DHT22;14992;50.844;4.418;2023-02-11T14:16:23;11.30;99.90
22337;DHT22;14992;50.844;4.418;2023-02-11T14:19:29;11.40;99.90
22337;DHT22;14992;50.844;4.418;2023-02-11T14:22:28;11.40;99.90
22337;DHT22;14992;50.844;4.418;2023-02-11T14:25:19;11.40;99.90
22337;DHT22;14992;50.844;4.418;2023-02-11T14:28:14;11.30;99.90
22337;DHT22;14992;50.844;4.418;2023-02-11T14:31:05;11.30;99.90
22337;DHT22;14992;50.844;4.418;2023-02-11T14:34:29;11.30;99.90
22337;DHT22;14992;50.844;4.418;2023-02-11T14:37:26;11.30;99.90
22337;DHT22;14992;50.844;4.418;2023-02-11T14:40:26;11.30;99.90
22337;DHT22;14992;50.844;4.418;2023-02-11T14:43:12;11.30;99.90
22337;DHT22;14992;50.844;4.418;2023-02-11T14:46:02;11.20;99.90
22337;DHT22;14992;50.844;4.418;2023-02-11T14:48:46;11.20;99.90
22337;DHT22;14992;50.844;4.418;2023-02-11T14:51:43;11.30;99.90
22337;DHT22;14992;50.844;4.418;2023-02-11T14:54:19;11.30;99.90
22337;DHT22;14992;50.844;4.418;2023-02-11T14:57:18;11.30;99.90
22337;DHT22;14992;50.844;4.418;2023-02-11T15:00:17;11.30;99.90
22337;DHT22;14992;50.844;4.418;2023-02-11T15:03:00;11.40;99.90
22337;DHT22;14992;50.844;4.418;2023-02-11T15:05:53;11.40;99.90
22337;DHT22;14992;50.844;4.418;2023-02-11T15:08:42;11.40;99.90
22337;DHT22;14992;50.844;4.418;2023-02-11T15:11:36;11.40;99.90
22337;DHT22;14992;50.844;4.418;2023-02-11T15:14:22;11.30;99.90
22337;DHT22;14992;50.844;4.418;2023-02-11T15:17:21;11.40;99.90
22337;DHT22;14992;50.844;4.418;2023-02-11T15:19:59;11.40;99.90
22337;DHT22;14992;50.844;4.418;2023-02-11T15:22:58;11.30;99.90
22337;DHT22;14992;50.844;4.418;2023-02-11T15:25:43;11.30;99.90
22337;DHT22;14992;50.844;4.418;2023-02-11T15:28:45;11.30;99.90
22337;DHT22;14992;50.844;4.418;2023-02-11T15:31:26;11.40;99.90
22337;DHT22;14992;50.844;4.418;2023-02-11T15:34:21;11.40;99.90
22337;DHT22;14992;50.844;4.418;2023-02-11T15:36:57;11.40;99.90
22337;DHT22;14992;50.844;4.418;2023-02-11T15:39:53;11.40;99.90
22337;DHT22;14992;50.844;4.418;2023-02-11T15:42:55;11.40;99.90
22337;DHT22;14992;50.844;4.418;2023-02-11T15:45:34;11.40;99.90
22337;DHT22;14992;50.844;4.418;2023-02-11T15:48:35;11.50;99.90
22337;DHT22;14992;50.844;4.418;2023-02-11T15:51:18;11.40;99.90
22337;DHT22;14992;50.844;4.418;2023-02-11T15:54:17;11.50;99.90
22337;DHT22;14992;50.844;4.418;2023-02-11T15:56:58;11.60;99.90
22337;DHT22;14992;50.844;4.418;2023-02-11T15:59:57;11.60;99.90
22337;DHT22;14992;50.844;4.418;2023-02-11T16:02:39;11.60;99.90
22337;DHT22;14992;50.844;4.418;2023-02-11T16:05:36;11.60;99.90
22337;DHT22;14992;50.844;4.418;2023-02-11T16:08:31;11.50;99.90
22337;DHT22;14992;50.844;4.418;2023-02-11T16:11:23;11.60;99.90
22337;DHT22;14992;50.844;4.418;2023-02-11T16:14:22;11.50;99.90
22337;DHT22;14992;50.844;4.418;2023-02-11T16:17:01;11.60;99.90
22337;DHT22;14992;50.844;4.418;2023-02-11T16:19:57;11.40;99.90
22337;DHT22;14992;50.844;4.418;2023-02-11T16:22:33;11.40;99.90
22337;DHT22;14992;50.844;4.418;2023-02-11T16:25:28;11.60;99.90
22337;DHT22;14992;50.844;4.418;2023-02-11T16:28:04;11.60;99.90
22337;DHT22;14992;50.844;4.418;2023-02-11T16:30:59;11.60;99.90
22337;DHT22;14992;50.844;4.418;2023-02-11T16:33:37;11.60;99.90
22337;DHT22;14992;50.844;4.418;2023-02-11T16:36:32;11.60;99.90
22337;DHT22;14992;50.844;4.418;2023-02-11T16:39:27;11.70;99.90
22337;DHT22;14992;50.844;4.418;2023-02-11T16:42:03;11.70;99.90
22337;DHT22;14992;50.844;4.418;2023-02-11T16:44:58;11.60;99.90
22337;DHT22;14992;50.844;4.418;2023-02-11T16:47:34;11.60;99.90
22337;DHT22;14992;50.844;4.418;2023-02-11T16:50:30;11.70;99.90
22337;DHT22;14992;50.844;4.418;2023-02-11T16:53:06;11.70;99.90
22337;DHT22;14992;50.844;4.418;2023-02-11T16:56:01;11.60;99.90
22337;DHT22;14992;50.844;4.418;2023-02-11T16:58:56;11.60;99.90
22337;DHT22;14992;50.844;4.418;2023-02-11T17:01:40;11.60;99.90
22337;DHT22;14992;50.844;4.418;2023-02-11T17:04:25;11.60;99.90
22337;DHT22;14992;50.844;4.418;2023-02-11T17:07:16;11.70;99.90
22337;DHT22;14992;50.844;4.418;2023-02-11T17:10:00;11.60;99.90
22337;DHT22;14992;50.844;4.418;2023-02-11T17:12:49;11.60;99.90
22337;DHT22;14992;50.844;4.418;2023-02-11T17:15:32;11.60;99.90
22337;DHT22;14992;50.844;4.418;2023-02-11T17:18:20;11.60;99.90
22337;DHT22;14992;50.844;4.418;2023-02-11T17:21:05;11.50;99.90
22337;DHT22;14992;50.844;4.418;2023-02-11T17:23:54;11.50;99.90
22337;DHT22;14992;50.844;4.418;2023-02-11T17:26:37;11.60;99.90
22337;DHT22;14992;50.844;4.418;2023-02-11T17:29:25;11.50;99.90
22337;DHT22;14992;50.844;4.418;2023-02-11T17:32:07;11.50;99.90
22337;DHT22;14992;50.844;4.418;2023-02-11T17:35:02;11.40;99.90
22337;DHT22;14992;50.844;4.418;2023-02-11T17:37:40;11.30;99.90
22337;DHT22;14992;50.844;4.418;2023-02-11T17:40:37;11.30;99.90
22337;DHT22;14992;50.844;4.418;2023-02-11T17:43:12;11.40;99.90
22337;DHT22;14992;50.844;4.418;2023-02-11T17:46:07;11.50;99.90
22337;DHT22;14992;50.844;4.418;2023-02-11T17:48:43;11.50;99.90
22337;DHT22;14992;50.844;4.418;2023-02-11T17:51:38;11.50;99.90
22337;DHT22;14992;50.844;4.418;2023-02-11T17:54:15;11.60;99.90
22337;DHT22;14992;50.844;4.418;2023-02-11T17:57:13;11.50;99.90
22337;DHT22;14992;50.844;4.418;2023-02-11T17:59:56;11.50;99.90
22337;DHT22;14992;50.844;4.418;2023-02-11T18:02:47;11.50;99.90
22337;DHT22;14992;50.844;4.418;2023-02-11T18:05:33;11.30;99.90
22337;DHT22;14992;50.844;4.418;2023-02-11T18:08:21;11.40;99.90
22337;DHT22;14992;50.844;4.418;2023-02-11T18:11:07;11.40;99.90
22337;DHT22;14992;50.844;4.418;2023-02-11T18:13:59;11.50;99.90
22337;DHT22;14992;50.844;4.418;2023-02-11T18:16:41;11.50;99.90